Time;durP1;ratioP1;P1;durP2;ratioP2;P2;SDS_P1;SDS_P2;PMS_P1;PMS_P2;Temp;Humidity;BMP_temperature;BMP_pressure;BME280_temperature;BME280_humidity;BME280_pressure;Samples;Min_cycle;Max_cycle;Signal;HPM_P1;HPM_P2
2022/10/21 00:01:40;;;;;;;11.13;5.85;;;;;;;;;;5046222;28;20021;-80
2022/10/21 00:04:06;;;;;;;9.02;6.13;;;;;;;;;;5034809;28;20036;-82
2022/10/21 00:06:32;;;;;;;8.15;6.13;;;;;;;;;;5040312;28;20078;-86
2022/10/21 00:08:58;;;;;;;8.85;6.65;;;;;;;;;;5027510;28;20036;-81
2022/10/21 00:11:24;;;;;;;9.75;7.10;;;;;;;;;;5036615;28;20021;-82
2022/10/21 00:13:50;;;;;;;9.48;7.00;;;;;;;;;;5046661;28;20033;-82
2022/10/21 00:16:18;;;;;;;8.73;7.07;;;;;;;;;;5050898;28;20409;-78
2022/10/21 00:18:45;;;;;;;10.15;7.40;;;;;;;;;;5030309;28;20040;-82
2022/10/21 00:21:16;;;;;;;13.52;7.80;;;;;;;;;;5023970;28;20036;-79
2022/10/21 00:23:42;;;;;;;10.68;7.55;;;;;;;;;;5049063;28;20072;-85
2022/10/21 00:26:08;;;;;;;11.63;7.68;;;;;;;;;;5043403;28;20098;-79
2022/10/21 00:28:34;;;;;;;11.13;7.45;;;;;;;;;;5024713;28;20033;-80
2022/10/21 00:31:01;;;;;;;10.68;7.53;;;;;;;;;;5047207;28;20470;-81
2022/10/21 00:33:27;;;;;;;9.40;7.43;;;;;;;;;;5051178;28;20052;-84
2022/10/21 00:35:55;;;;;;;9.20;7.20;;;;;;;;;;5052947;28;20017;-82
2022/10/21 00:38:21;;;;;;;10.13;7.38;;;;;;;;;;5027181;28;20040;-86
2022/10/21 00:40:47;;;;;;;15.10;7.15;;;;;;;;;;5023083;28;20025;-84
2022/10/21 00:43:13;;;;;;;9.43;7.28;;;;;;;;;;5025945;28;20060;-82
2022/10/21 00:45:39;;;;;;;10.32;7.20;;;;;;;;;;5052812;28;20025;-81
2022/10/21 00:48:14;;;;;;;7.78;6.25;;;;;;;;;;5042039;28;20028;-85
2022/10/21 00:50:54;;;;;;;9.55;6.65;;;;;;;;;;5018048;28;20025;-80
2022/10/21 00:53:20;;;;;;;8.98;6.40;;;;;;;;;;5051503;28;20032;-82
2022/10/21 00:55:49;;;;;;;7.47;5.53;;;;;;;;;;5033026;28;20505;-83
2022/10/21 00:58:16;;;;;;;10.80;5.80;;;;;;;;;;5024184;28;20044;-82
2022/10/21 01:00:42;;;;;;;12.10;6.18;;;;;;;;;;5054865;28;20025;-87
2022/10/21 01:03:08;;;;;;;7.85;5.40;;;;;;;;;;5049610;28;20083;-86
2022/10/21 01:05:36;;;;;;;6.70;5.20;;;;;;;;;;5027598;28;20035;-89
2022/10/21 01:08:02;;;;;;;8.10;4.70;;;;;;;;;;5029603;28;20029;-84
2022/10/21 01:10:28;;;;;;;7.85;4.80;;;;;;;;;;5046623;28;20032;-85
2022/10/21 01:13:06;;;;;;;6.05;4.68;;;;;;;;;;5054991;28;20017;-86
2022/10/21 01:15:42;;;;;;;5.88;3.90;;;;;;;;;;5025255;28;20041;-85
2022/10/21 01:18:14;;;;;;;6.65;4.00;;;;;;;;;;5050859;28;20048;-79
2022/10/21 01:20:40;;;;;;;7.13;4.00;;;;;;;;;;5052420;28;20031;-88
2022/10/21 01:23:06;;;;;;;6.45;3.60;;;;;;;;;;5034326;28;20028;-81
2022/10/21 01:25:44;;;;;;;9.20;3.47;;;;;;;;;;5046230;28;20478;-80
2022/10/21 01:28:20;;;;;;;4.60;3.20;;;;;;;;;;5050444;28;20028;-80
2022/10/21 01:30:51;;;;;;;6.72;3.35;;;;;;;;;;5051656;28;20025;-78
2022/10/21 01:33:26;;;;;;;6.10;3.55;;;;;;;;;;5048767;28;20382;-83
2022/10/21 01:35:57;;;;;;;5.28;3.20;;;;;;;;;;5052200;28;20029;-81
2022/10/21 01:38:32;;;;;;;4.57;3.45;;;;;;;;;;5037038;28;20025;-85
2022/10/21 01:41:17;;;;;;;8.20;3.53;;;;;;;;;;5046669;28;20079;-84
2022/10/21 01:43:55;;;;;;;7.32;3.42;;;;;;;;;;5021780;28;20063;-82
2022/10/21 01:46:39;;;;;;;5.53;3.30;;;;;;;;;;5052390;28;20028;-82
2022/10/21 01:49:26;;;;;;;6.05;3.30;;;;;;;;;;5055423;28;20035;-79
2022/10/21 01:51:53;;;;;;;4.22;3.20;;;;;;;;;;5022547;28;20029;-81
2022/10/21 01:54:22;;;;;;;4.35;3.00;;;;;;;;;;5038948;28;20478;-80
2022/10/21 01:56:50;;;;;;;6.90;3.53;;;;;;;;;;5045159;28;20029;-83
2022/10/21 01:59:17;;;;;;;4.25;3.30;;;;;;;;;;5041038;28;20154;-86
2022/10/21 02:01:43;;;;;;;6.35;3.38;;;;;;;;;;5053063;28;20031;-85
2022/10/21 02:04:11;;;;;;;4.60;3.20;;;;;;;;;;5053892;28;20068;-79
2022/10/21 02:06:37;;;;;;;7.25;3.60;;;;;;;;;;5048213;28;20154;-81
2022/10/21 02:09:03;;;;;;;4.75;2.80;;;;;;;;;;5052120;28;20040;-80
2022/10/21 02:11:30;;;;;;;8.88;3.10;;;;;;;;;;5055309;28;20022;-84
2022/10/21 02:14:02;;;;;;;7.50;3.55;;;;;;;;;;5032995;28;20458;-79
2022/10/21 02:16:31;;;;;;;6.20;3.20;;;;;;;;;;5052882;28;20028;-79
2022/10/21 02:18:58;;;;;;;4.68;3.38;;;;;;;;;;5037871;28;20038;-79
2022/10/21 02:21:26;;;;;;;6.70;2.85;;;;;;;;;;5054783;28;20029;-79
2022/10/21 02:24:02;;;;;;;7.63;3.20;;;;;;;;;;5052162;28;20084;-78
2022/10/21 02:26:28;;;;;;;4.97;2.75;;;;;;;;;;5052871;28;20045;-79
2022/10/21 02:28:55;;;;;;;5.28;3.03;;;;;;;;;;5052006;28;20063;-80
2022/10/21 02:31:21;;;;;;;9.45;3.25;;;;;;;;;;5019142;28;20025;-79
2022/10/21 02:33:47;;;;;;;13.63;4.07;;;;;;;;;;5039230;28;20025;-79
2022/10/21 02:36:42;;;;;;;6.65;3.05;;;;;;;;;;5051862;28;20116;-80
2022/10/21 02:39:14;;;;;;;6.05;3.30;;;;;;;;;;4989720;28;20042;-78
2022/10/21 02:41:42;;;;;;;4.30;3.08;;;;;;;;;;4991686;28;20045;-81
2022/10/21 02:44:08;;;;;;;4.15;2.72;;;;;;;;;;4991297;28;20547;-82
2022/10/21 02:46:36;;;;;;;7.55;3.40;;;;;;;;;;4992511;28;20113;-82
2022/10/21 02:49:02;;;;;;;5.03;3.10;;;;;;;;;;4975960;28;20575;-78
2022/10/21 02:51:28;;;;;;;6.78;3.40;;;;;;;;;;4983757;28;20034;-79
2022/10/21 02:53:54;;;;;;;3.90;2.80;;;;;;;;;;4976134;28;20054;-81
2022/10/21 02:56:20;;;;;;;9.10;3.35;;;;;;;;;;4985005;28;20042;-80
2022/10/21 02:58:46;;;;;;;5.72;2.88;;;;;;;;;;4976685;28;20022;-83
2022/10/21 03:01:12;;;;;;;5.20;3.20;;;;;;;;;;4990068;28;20113;-81
2022/10/21 03:03:38;;;;;;;6.75;3.60;;;;;;;;;;4964819;28;20459;-83
2022/10/21 03:06:04;;;;;;;5.70;2.95;;;;;;;;;;4964385;28;20388;-87
2022/10/21 03:08:31;;;;;;;4.55;3.22;;;;;;;;;;4977554;28;20046;-79
2022/10/21 03:10:57;;;;;;;5.13;3.10;;;;;;;;;;4976760;28;20026;-78
2022/10/21 03:13:23;;;;;;;6.85;3.28;;;;;;;;;;4965015;28;20102;-78
2022/10/21 03:15:49;;;;;;;4.28;3.10;;;;;;;;;;5012548;28;20457;-79
2022/10/21 03:18:15;;;;;;;4.38;2.70;;;;;;;;;;5054142;28;20048;-81
2022/10/21 03:20:41;;;;;;;5.28;2.80;;;;;;;;;;5033117;28;20036;-79
2022/10/21 03:23:07;;;;;;;3.85;3.00;;;;;;;;;;5050442;28;20025;-80
2022/10/21 03:25:33;;;;;;;4.55;3.10;;;;;;;;;;5029468;28;20080;-78
2022/10/21 03:27:59;;;;;;;4.10;2.80;;;;;;;;;;5053013;28;20024;-80
2022/10/21 03:30:26;;;;;;;4.80;2.97;;;;;;;;;;5048875;28;20049;-79
2022/10/21 03:32:52;;;;;;;6.45;2.85;;;;;;;;;;5042856;28;20025;-83
2022/10/21 03:35:18;;;;;;;3.65;2.63;;;;;;;;;;5026807;28;20036;-80
2022/10/21 03:37:44;;;;;;;4.97;3.13;;;;;;;;;;5045333;28;20021;-80
2022/10/21 03:40:10;;;;;;;5.30;3.00;;;;;;;;;;5016397;28;20030;-80
2022/10/21 03:42:36;;;;;;;7.55;3.03;;;;;;;;;;5048939;28;20025;-79
2022/10/21 03:45:02;;;;;;;4.10;2.88;;;;;;;;;;5052802;28;20068;-77
2022/10/21 03:47:28;;;;;;;4.65;3.00;;;;;;;;;;5039569;28;20025;-82
2022/10/21 03:49:54;;;;;;;4.32;2.92;;;;;;;;;;5053490;28;20082;-78
2022/10/21 03:52:20;;;;;;;5.85;3.30;;;;;;;;;;5051277;28;20460;-78
2022/10/21 03:54:46;;;;;;;4.68;3.17;;;;;;;;;;5045085;28;20017;-80
2022/10/21 03:57:12;;;;;;;3.90;3.13;;;;;;;;;;5031402;28;20567;-81
2022/10/21 03:59:38;;;;;;;4.95;2.95;;;;;;;;;;5039396;28;20045;-79
2022/10/21 04:02:04;;;;;;;6.38;3.10;;;;;;;;;;5044109;28;20022;-78
2022/10/21 04:04:30;;;;;;;9.65;3.25;;;;;;;;;;5045259;28;20040;-77
2022/10/21 04:06:56;;;;;;;5.30;3.40;;;;;;;;;;5048564;28;20021;-81
2022/10/21 04:09:22;;;;;;;5.03;3.25;;;;;;;;;;5050240;28;20490;-79
2022/10/21 04:11:48;;;;;;;6.78;3.30;;;;;;;;;;5054265;28;20025;-83
2022/10/21 04:14:15;;;;;;;7.07;3.33;;;;;;;;;;5045917;28;20037;-82
2022/10/21 04:16:41;;;;;;;7.57;3.67;;;;;;;;;;5031117;28;20035;-80
2022/10/21 04:19:07;;;;;;;5.85;3.83;;;;;;;;;;5048849;28;20104;-82
2022/10/21 04:21:33;;;;;;;7.65;3.65;;;;;;;;;;5048740;28;20490;-79
2022/10/21 04:23:59;;;;;;;9.07;3.70;;;;;;;;;;5030266;28;20050;-79
2022/10/21 04:26:25;;;;;;;9.20;3.80;;;;;;;;;;5046785;28;20095;-80
2022/10/21 04:28:51;;;;;;;8.07;3.40;;;;;;;;;;5021917;28;20041;-80
2022/10/21 04:31:17;;;;;;;9.60;3.70;;;;;;;;;;5044391;28;20117;-79
2022/10/21 04:33:43;;;;;;;8.13;3.50;;;;;;;;;;5048859;28;20028;-81
2022/10/21 04:36:09;;;;;;;6.22;3.78;;;;;;;;;;5049746;28;20033;-80
2022/10/21 04:38:35;;;;;;;6.30;3.83;;;;;;;;;;5046689;28;20021;-77
2022/10/21 04:41:02;;;;;;;4.57;3.30;;;;;;;;;;5050342;28;20028;-79
2022/10/21 04:43:29;;;;;;;5.63;3.70;;;;;;;;;;5052187;28;20390;-80
2022/10/21 04:45:55;;;;;;;6.35;3.92;;;;;;;;;;5042302;28;20029;-79
2022/10/21 04:48:21;;;;;;;7.50;3.92;;;;;;;;;;5034899;28;20032;-82
2022/10/21 04:50:51;;;;;;;6.38;4.00;;;;;;;;;;5052446;28;20389;-80
2022/10/21 04:53:18;;;;;;;8.02;4.72;;;;;;;;;;5031312;28;20022;-82
2022/10/21 04:55:44;;;;;;;9.45;4.45;;;;;;;;;;5025990;28;20474;-77
2022/10/21 04:58:10;;;;;;;7.57;4.57;;;;;;;;;;5031709;28;20029;-77
2022/10/21 05:00:36;;;;;;;10.40;5.60;;;;;;;;;;5049860;28;20087;-77
2022/10/21 05:03:02;;;;;;;11.07;6.18;;;;;;;;;;5059325;28;20020;-82
2022/10/21 05:05:28;;;;;;;9.60;6.13;;;;;;;;;;5033725;28;20032;-76
2022/10/21 05:07:54;;;;;;;9.13;6.47;;;;;;;;;;5052640;28;20096;-80
2022/10/21 05:10:21;;;;;;;11.13;6.80;;;;;;;;;;5052114;28;20028;-80
2022/10/21 05:12:47;;;;;;;9.63;6.78;;;;;;;;;;5034934;28;20017;-77
2022/10/21 05:15:13;;;;;;;14.27;7.13;;;;;;;;;;5054641;28;20064;-78
2022/10/21 05:17:39;;;;;;;14.27;6.30;;;;;;;;;;5049720;28;20075;-77
2022/10/21 05:20:06;;;;;;;10.02;6.00;;;;;;;;;;5056392;28;20467;-91
2022/10/21 05:22:32;;;;;;;8.55;5.80;;;;;;;;;;5057694;28;20472;-81
2022/10/21 05:24:58;;;;;;;9.00;6.40;;;;;;;;;;5028395;28;20044;-78
2022/10/21 05:27:24;;;;;;;11.13;6.35;;;;;;;;;;5045379;28;20143;-76
2022/10/21 05:29:50;;;;;;;13.57;7.00;;;;;;;;;;5028289;28;20045;-78
2022/10/21 05:32:16;;;;;;;15.73;6.25;;;;;;;;;;5057951;28;20542;-75
2022/10/21 05:34:42;;;;;;;11.38;6.30;;;;;;;;;;5059478;28;20398;-76
2022/10/21 05:37:08;;;;;;;14.98;7.32;;;;;;;;;;5049372;28;20088;-77
2022/10/21 05:39:34;;;;;;;14.15;8.23;;;;;;;;;;5042980;28;20172;-78
2022/10/21 05:42:03;;;;;;;15.13;8.32;;;;;;;;;;5057775;28;20033;-78
2022/10/21 05:44:29;;;;;;;11.52;7.07;;;;;;;;;;5052507;28;20039;-87
2022/10/21 05:46:55;;;;;;;9.90;7.35;;;;;;;;;;5049312;28;20029;-78
2022/10/21 05:49:21;;;;;;;11.50;7.72;;;;;;;;;;5049731;28;20025;-77
2022/10/21 05:51:48;;;;;;;16.88;8.30;;;;;;;;;;5050872;28;20022;-82
2022/10/21 05:54:14;;;;;;;13.45;8.45;;;;;;;;;;5055820;28;20490;-81
2022/10/21 05:56:41;;;;;;;11.50;7.90;;;;;;;;;;5055577;28;20033;-76
2022/10/21 05:59:07;;;;;;;13.48;8.52;;;;;;;;;;5060114;28;20025;-75
2022/10/21 06:01:33;;;;;;;12.93;8.05;;;;;;;;;;5065138;28;20027;-90
2022/10/21 06:03:59;;;;;;;12.23;8.95;;;;;;;;;;5060206;28;20385;-87
2022/10/21 06:06:25;;;;;;;12.98;8.07;;;;;;;;;;5047146;28;20029;-78
2022/10/21 06:08:51;;;;;;;35.38;9.18;;;;;;;;;;5055528;28;20025;-82
2022/10/21 06:11:19;;;;;;;18.08;7.40;;;;;;;;;;5061354;28;20061;-77
2022/10/21 06:13:45;;;;;;;14.82;6.47;;;;;;;;;;5049073;28;20048;-75
2022/10/21 06:16:15;;;;;;;9.38;6.72;;;;;;;;;;5046298;28;20025;-84
2022/10/21 06:18:41;;;;;;;12.23;6.35;;;;;;;;;;5057157;28;20021;-77
2022/10/21 06:21:07;;;;;;;9.88;5.85;;;;;;;;;;5034318;28;20394;-77
2022/10/21 06:23:34;;;;;;;12.05;6.32;;;;;;;;;;5047374;28;20022;-77
2022/10/21 06:26:15;;;;;;;9.23;5.78;;;;;;;;;;5056271;28;20501;-77
2022/10/21 06:28:42;;;;;;;8.15;5.55;;;;;;;;;;5056995;28;20022;-77
2022/10/21 06:31:11;;;;;;;9.93;6.13;;;;;;;;;;5052508;28;20497;-77
2022/10/21 06:33:38;;;;;;;10.77;6.30;;;;;;;;;;5049064;28;20496;-78
2022/10/21 06:36:04;;;;;;;9.52;5.85;;;;;;;;;;5052973;28;20028;-78
2022/10/21 06:38:31;;;;;;;11.95;6.57;;;;;;;;;;5043396;28;20037;-77
2022/10/21 06:41:08;;;;;;;14.35;7.95;;;;;;;;;;5062214;28;20021;-77
2022/10/21 06:43:34;;;;;;;12.00;7.05;;;;;;;;;;5052551;28;20490;-77
2022/10/21 06:46:03;;;;;;;12.50;6.68;;;;;;;;;;5054374;28;20051;-78
2022/10/21 06:48:30;;;;;;;15.07;7.03;;;;;;;;;;5059155;28;20421;-76
2022/10/21 06:50:58;;;;;;;13.20;6.82;;;;;;;;;;5048965;28;20025;-75
2022/10/21 06:53:25;;;;;;;10.70;6.85;;;;;;;;;;5038616;28;20081;-77
2022/10/21 06:55:51;;;;;;;8.50;6.47;;;;;;;;;;5049021;28;20051;-78
2022/10/21 06:58:17;;;;;;;9.23;6.90;;;;;;;;;;5055263;28;20043;-77
2022/10/21 07:00:43;;;;;;;13.52;7.03;;;;;;;;;;5030873;28;20044;-78
2022/10/21 07:03:09;;;;;;;14.05;7.15;;;;;;;;;;5046755;28;20494;-77
2022/10/21 07:05:35;;;;;;;9.18;7.03;;;;;;;;;;5054917;28;20090;-78
2022/10/21 07:08:01;;;;;;;13.18;7.55;;;;;;;;;;5063621;28;20021;-78
2022/10/21 07:10:27;;;;;;;11.23;7.53;;;;;;;;;;5048184;28;20061;-78
2022/10/21 07:12:53;;;;;;;9.68;7.65;;;;;;;;;;5041646;28;20079;-78
2022/10/21 07:15:19;;;;;;;14.10;8.32;;;;;;;;;;5051104;28;20021;-78
2022/10/21 07:17:45;;;;;;;12.20;8.20;;;;;;;;;;5048646;28;20047;-77
2022/10/21 07:20:11;;;;;;;10.73;8.57;;;;;;;;;;5051551;28;20017;-78
2022/10/21 07:22:37;;;;;;;23.10;8.52;;;;;;;;;;5041574;28;20064;-78
2022/10/21 07:25:04;;;;;;;15.35;8.32;;;;;;;;;;5045317;28;20033;-77
2022/10/21 07:27:30;;;;;;;11.20;8.20;;;;;;;;;;5048730;28;20090;-77
2022/10/21 07:29:56;;;;;;;11.05;8.18;;;;;;;;;;5050948;28;20071;-76
2022/10/21 07:32:22;;;;;;;13.27;8.98;;;;;;;;;;5059581;28;20025;-77
2022/10/21 07:34:48;;;;;;;14.35;8.60;;;;;;;;;;5049033;28;20025;-76
2022/10/21 07:37:14;;;;;;;14.07;8.43;;;;;;;;;;5054226;28;20029;-77
2022/10/21 07:39:40;;;;;;;14.73;9.32;;;;;;;;;;5047400;28;20099;-77
2022/10/21 07:42:08;;;;;;;12.57;9.30;;;;;;;;;;5050713;28;20781;-78
2022/10/21 07:44:34;;;;;;;11.40;8.85;;;;;;;;;;5048808;28;20045;-77
2022/10/21 07:47:00;;;;;;;11.70;9.15;;;;;;;;;;5049120;28;20473;-76
2022/10/21 07:49:26;;;;;;;11.45;8.77;;;;;;;;;;5055504;28;20033;-77
2022/10/21 07:51:53;;;;;;;12.55;8.57;;;;;;;;;;5029175;28;20059;-78
2022/10/21 07:54:20;;;;;;;13.45;9.57;;;;;;;;;;5071865;28;20031;-78
2022/10/21 07:56:47;;;;;;;17.83;10.18;;;;;;;;;;5062682;28;20029;-77
2022/10/21 07:59:14;;;;;;;19.58;9.57;;;;;;;;;;5058021;28;20059;-78
2022/10/21 08:01:42;;;;;;;18.20;9.15;;;;;;;;;;5054134;28;20475;-77
2022/10/21 08:04:09;;;;;;;19.42;9.40;;;;;;;;;;5069380;28;20078;-77
2022/10/21 08:06:35;;;;;;;17.20;10.05;;;;;;;;;;5061043;28;20025;-78
2022/10/21 08:09:02;;;;;;;15.48;10.63;;;;;;;;;;5038247;28;20528;-78
2022/10/21 08:11:30;;;;;;;16.85;10.82;;;;;;;;;;5055300;28;20446;-78
2022/10/21 08:13:56;;;;;;;19.02;10.07;;;;;;;;;;5046401;28;20028;-78
2022/10/21 08:16:23;;;;;;;17.05;11.30;;;;;;;;;;5046507;28;20490;-78
2022/10/21 08:18:49;;;;;;;15.95;9.98;;;;;;;;;;5050533;28;20029;-78
2022/10/21 08:21:15;;;;;;;15.55;10.07;;;;;;;;;;5048915;28;20033;-77
2022/10/21 08:23:41;;;;;;;14.75;9.57;;;;;;;;;;5056677;28;20558;-77
2022/10/21 08:26:09;;;;;;;16.73;10.27;;;;;;;;;;5050606;28;20060;-77
2022/10/21 08:28:35;;;;;;;21.52;10.48;;;;;;;;;;5059363;28;20025;-78
2022/10/21 08:31:08;;;;;;;15.15;10.43;;;;;;;;;;5051708;28;20029;-78
2022/10/21 08:33:35;;;;;;;15.38;9.93;;;;;;;;;;5047650;28;20021;-78
2022/10/21 08:36:09;;;;;;;19.13;9.13;;;;;;;;;;5039494;28;20040;-79
2022/10/21 08:38:36;;;;;;;15.23;9.88;;;;;;;;;;5065658;28;20025;-79
2022/10/21 08:41:02;;;;;;;15.85;9.10;;;;;;;;;;5043006;28;20090;-75
2022/10/21 08:43:33;;;;;;;13.50;9.57;;;;;;;;;;5049803;28;20026;-76
2022/10/21 08:46:04;;;;;;;13.75;8.70;;;;;;;;;;5053129;28;20048;-76
2022/10/21 08:48:33;;;;;;;13.25;9.23;;;;;;;;;;5053584;28;20096;-75
2022/10/21 08:50:59;;;;;;;25.65;9.50;;;;;;;;;;5051014;28;20036;-74
2022/10/21 08:53:25;;;;;;;12.30;8.63;;;;;;;;;;5051246;28;20029;-74
2022/10/21 08:55:52;;;;;;;16.40;9.65;;;;;;;;;;5057461;28;20086;-74
2022/10/21 08:58:22;;;;;;;14.98;9.77;;;;;;;;;;5057730;28;20107;-76
2022/10/21 09:01:01;;;;;;;15.05;9.57;;;;;;;;;;5050956;28;20032;-75
2022/10/21 09:03:27;;;;;;;17.85;10.07;;;;;;;;;;5042446;28;20024;-76
2022/10/21 09:05:53;;;;;;;16.77;9.98;;;;;;;;;;5061002;28;20020;-76
2022/10/21 09:08:31;;;;;;;14.90;10.23;;;;;;;;;;5044250;28;20025;-76
2022/10/21 09:11:01;;;;;;;15.63;9.32;;;;;;;;;;5046949;28;20051;-76
2022/10/21 09:13:33;;;;;;;16.30;9.55;;;;;;;;;;5040313;28;20017;-76
2022/10/21 09:16:18;;;;;;;13.55;9.18;;;;;;;;;;5044600;28;20028;-76
2022/10/21 09:18:50;;;;;;;15.20;9.32;;;;;;;;;;5045292;28;20029;-77
2022/10/21 09:21:28;;;;;;;17.05;9.55;;;;;;;;;;5054443;28;20108;-76
2022/10/21 09:24:10;;;;;;;16.33;10.20;;;;;;;;;;5032856;28;20047;-77
2022/10/21 09:26:40;;;;;;;11.38;8.43;;;;;;;;;;5035935;28;20057;-77
2022/10/21 09:29:19;;;;;;;16.17;8.40;;;;;;;;;;5040716;28;20116;-76
2022/10/21 09:31:46;;;;;;;15.90;8.32;;;;;;;;;;5049972;28;20026;-77
2022/10/21 09:34:19;;;;;;;19.83;9.23;;;;;;;;;;5050025;28;20502;-77
2022/10/21 09:36:47;;;;;;;16.02;8.00;;;;;;;;;;5050621;28;20082;-76
2022/10/21 09:39:19;;;;;;;13.50;7.80;;;;;;;;;;5057837;28;20028;-76
2022/10/21 09:41:49;;;;;;;16.05;7.82;;;;;;;;;;5045033;28;20017;-75
2022/10/21 09:44:17;;;;;;;11.15;8.07;;;;;;;;;;5051053;28;20022;-76
2022/10/21 09:46:47;;;;;;;12.82;7.70;;;;;;;;;;5051828;28;20083;-76
2022/10/21 09:49:28;;;;;;;14.13;7.57;;;;;;;;;;5052803;28;20105;-76
2022/10/21 09:51:54;;;;;;;14.60;7.80;;;;;;;;;;5044565;28;20029;-76
2022/10/21 09:54:22;;;;;;;16.00;7.72;;;;;;;;;;5024539;28;20108;-75
2022/10/21 09:57:07;;;;;;;12.68;7.03;;;;;;;;;;5057422;28;20033;-76
2022/10/21 09:59:36;;;;;;;17.10;7.40;;;;;;;;;;5041024;28;20034;-75
2022/10/21 10:02:06;;;;;;;14.30;6.93;;;;;;;;;;5054624;28;20048;-75
2022/10/21 10:04:34;;;;;;;13.82;6.78;;;;;;;;;;5059393;28;20040;-75
2022/10/21 10:07:02;;;;;;;9.93;6.78;;;;;;;;;;5059131;28;20021;-76
2022/10/21 10:09:28;;;;;;;10.57;6.80;;;;;;;;;;5057601;28;20086;-76
2022/10/21 10:11:56;;;;;;;15.90;7.38;;;;;;;;;;5045890;28;20105;-76
2022/10/21 10:14:24;;;;;;;11.63;6.50;;;;;;;;;;5055964;28;20017;-76
2022/10/21 10:16:50;;;;;;;12.60;6.85;;;;;;;;;;5038902;28;20028;-76
2022/10/21 10:19:24;;;;;;;12.70;6.28;;;;;;;;;;5043510;28;20021;-76
2022/10/21 10:22:08;;;;;;;11.27;6.07;;;;;;;;;;5055128;28;20021;-76
2022/10/21 10:24:35;;;;;;;8.70;6.10;;;;;;;;;;5052938;28;20478;-75
2022/10/21 10:27:05;;;;;;;20.08;6.80;;;;;;;;;;5055524;28;20049;-75
2022/10/21 10:29:32;;;;;;;9.75;6.38;;;;;;;;;;5050851;28;20104;-75
2022/10/21 10:32:00;;;;;;;13.50;7.28;;;;;;;;;;5056013;28;20013;-75
2022/10/21 10:34:37;;;;;;;9.77;6.40;;;;;;;;;;5042789;28;20025;-75
2022/10/21 10:37:19;;;;;;;15.30;6.78;;;;;;;;;;5057668;28;20021;-75
2022/10/21 10:39:47;;;;;;;14.45;6.88;;;;;;;;;;5058028;28;20191;-75
2022/10/21 10:42:18;;;;;;;15.45;6.78;;;;;;;;;;5055337;28;20091;-75
2022/10/21 10:44:44;;;;;;;12.02;6.65;;;;;;;;;;5055770;28;20111;-75
2022/10/21 10:47:40;;;;;;;14.98;7.03;;;;;;;;;;5057865;28;20045;-75
2022/10/21 10:50:26;;;;;;;17.05;6.80;;;;;;;;;;5023202;28;20037;-75
2022/10/21 10:53:10;;;;;;;9.48;6.07;;;;;;;;;;5043782;28;20422;-75
2022/10/21 10:55:42;;;;;;;11.10;6.30;;;;;;;;;;5050581;28;20386;-75
2022/10/21 10:58:08;;;;;;;12.05;6.70;;;;;;;;;;5039507;28;20027;-75
2022/10/21 11:00:40;;;;;;;10.38;5.78;;;;;;;;;;5059200;28;20032;-75
2022/10/21 11:03:09;;;;;;;11.10;6.18;;;;;;;;;;5050031;28;20021;-75
2022/10/21 11:05:39;;;;;;;10.18;5.80;;;;;;;;;;5049371;28;20403;-76
2022/10/21 11:08:10;;;;;;;10.90;6.30;;;;;;;;;;5058031;28;20072;-75
2022/10/21 11:10:38;;;;;;;14.65;6.32;;;;;;;;;;5058284;28;20029;-77
2022/10/21 11:13:10;;;;;;;11.32;6.68;;;;;;;;;;5058297;28;20021;-76
2022/10/21 11:15:55;;;;;;;9.45;6.30;;;;;;;;;;5053773;28;20040;-75
2022/10/21 11:18:39;;;;;;;13.02;6.80;;;;;;;;;;5042754;28;20092;-76
2022/10/21 11:21:07;;;;;;;19.20;6.72;;;;;;;;;;5060437;28;20033;-76
2022/10/21 11:23:36;;;;;;;12.95;6.30;;;;;;;;;;5060799;28;20021;-76
2022/10/21 11:26:05;;;;;;;12.50;6.10;;;;;;;;;;5052564;28;20060;-76
2022/10/21 11:28:42;;;;;;;11.93;6.28;;;;;;;;;;5051246;28;20079;-76
2022/10/21 11:31:09;;;;;;;14.30;6.20;;;;;;;;;;5046535;28;20033;-77
2022/10/21 11:33:54;;;;;;;16.55;6.30;;;;;;;;;;5054960;28;20029;-77
2022/10/21 11:36:29;;;;;;;10.05;6.32;;;;;;;;;;5030205;28;20029;-75
2022/10/21 11:39:26;;;;;;;13.38;6.85;;;;;;;;;;5060501;28;20513;-77
2022/10/21 11:42:01;;;;;;;10.32;6.60;;;;;;;;;;5054500;28;20061;-76
2022/10/21 11:44:40;;;;;;;14.93;6.90;;;;;;;;;;5058526;28;20052;-76
2022/10/21 11:47:20;;;;;;;17.00;5.97;;;;;;;;;;5058846;28;20028;-76
2022/10/21 11:49:53;;;;;;;17.77;5.97;;;;;;;;;;5042530;28;20049;-76
2022/10/21 11:52:22;;;;;;;11.50;6.15;;;;;;;;;;5043837;28;20025;-76
2022/10/21 11:55:07;;;;;;;7.97;5.80;;;;;;;;;;5047199;28;20104;-75
2022/10/21 11:57:42;;;;;;;9.52;5.93;;;;;;;;;;5043935;28;20562;-76
2022/10/21 12:00:13;;;;;;;8.10;5.68;;;;;;;;;;5055522;28;20025;-75
2022/10/21 12:02:41;;;;;;;8.32;6.00;;;;;;;;;;5055275;28;20478;-75
2022/10/21 12:05:11;;;;;;;11.68;5.65;;;;;;;;;;5057627;28;20044;-75
2022/10/21 12:07:50;;;;;;;15.45;6.15;;;;;;;;;;5059540;28;20493;-76
2022/10/21 12:10:26;;;;;;;9.57;5.88;;;;;;;;;;5060590;28;20025;-76
2022/10/21 12:12:54;;;;;;;12.43;5.70;;;;;;;;;;5046791;28;20099;-76
2022/10/21 12:15:22;;;;;;;10.25;5.40;;;;;;;;;;5033915;28;20126;-76
2022/10/21 12:17:49;;;;;;;20.13;6.45;;;;;;;;;;5066762;28;20072;-76
2022/10/21 12:20:19;;;;;;;12.40;6.20;;;;;;;;;;5066430;28;20025;-75
2022/10/21 12:22:46;;;;;;;10.07;5.88;;;;;;;;;;5066360;28;20059;-76
2022/10/21 12:25:33;;;;;;;14.85;6.00;;;;;;;;;;5066874;28;20029;-76
2022/10/21 12:28:11;;;;;;;17.05;5.88;;;;;;;;;;4958177;29;20154;-77
2022/10/21 12:30:43;;;;;;;10.85;5.97;;;;;;;;;;4959785;29;20054;-79
2022/10/21 12:33:29;;;;;;;9.75;5.15;;;;;;;;;;4954733;29;20043;-76
2022/10/21 12:35:57;;;;;;;12.18;6.47;;;;;;;;;;4947663;29;20077;-77
2022/10/21 12:38:42;;;;;;;11.88;5.30;;;;;;;;;;4959238;29;20035;-74
2022/10/21 12:41:23;;;;;;;8.13;5.38;;;;;;;;;;4948380;29;20163;-77
2022/10/21 12:43:54;;;;;;;18.52;6.18;;;;;;;;;;4938780;29;20046;-75
2022/10/21 12:46:25;;;;;;;10.15;5.95;;;;;;;;;;4953461;29;20039;-76
2022/10/21 12:48:52;;;;;;;10.05;5.57;;;;;;;;;;4948036;29;20054;-75
2022/10/21 12:51:21;;;;;;;15.30;8.20;;;;;;;;;;4949490;28;20076;-75
2022/10/21 12:53:48;;;;;;;16.20;6.15;;;;;;;;;;4955390;28;20073;-75
2022/10/21 12:56:25;;;;;;;12.45;5.43;;;;;;;;;;4954172;29;20647;-74
2022/10/21 12:58:56;;;;;;;14.88;5.72;;;;;;;;;;4946113;29;20454;-74
2022/10/21 13:01:42;;;;;;;10.18;5.15;;;;;;;;;;4946302;29;20094;-74
2022/10/21 13:04:27;;;;;;;9.50;6.00;;;;;;;;;;4955835;28;20122;-75
2022/10/21 13:06:54;;;;;;;15.32;5.47;;;;;;;;;;5063714;28;20048;-74
2022/10/21 13:09:34;;;;;;;14.80;6.10;;;;;;;;;;5048931;28;20104;-74
2022/10/21 13:12:12;;;;;;;12.48;5.72;;;;;;;;;;5055630;28;20025;-74
2022/10/21 13:14:50;;;;;;;13.68;6.53;;;;;;;;;;5054672;28;20032;-74
2022/10/21 13:17:20;;;;;;;10.85;6.00;;;;;;;;;;5057618;28;20036;-74
2022/10/21 13:19:50;;;;;;;13.75;6.28;;;;;;;;;;5039726;28;20466;-74
2022/10/21 13:22:36;;;;;;;12.35;6.40;;;;;;;;;;5051753;28;20024;-74
2022/10/21 13:25:23;;;;;;;10.63;6.00;;;;;;;;;;5048207;28;20375;-76
2022/10/21 13:28:08;;;;;;;11.80;7.00;;;;;;;;;;5018212;28;20372;-75
2022/10/21 13:30:37;;;;;;;11.18;6.20;;;;;;;;;;5004839;28;20025;-74
2022/10/21 13:33:04;;;;;;;15.32;6.60;;;;;;;;;;5023895;28;20033;-75
2022/10/21 13:35:30;;;;;;;11.48;6.07;;;;;;;;;;5012210;28;20058;-75
2022/10/21 13:37:56;;;;;;;11.98;6.40;;;;;;;;;;5021511;28;20083;-75
2022/10/21 13:40:33;;;;;;;14.45;6.60;;;;;;;;;;5014640;28;20101;-75
2022/10/21 13:43:04;;;;;;;14.88;7.03;;;;;;;;;;5010274;28;20487;-75
2022/10/21 13:45:33;;;;;;;11.95;7.40;;;;;;;;;;5010497;28;20121;-75
2022/10/21 13:48:02;;;;;;;13.50;7.35;;;;;;;;;;5028069;28;20047;-75
2022/10/21 13:50:32;;;;;;;21.38;7.80;;;;;;;;;;5020940;28;20482;-76
2022/10/21 13:52:58;;;;;;;14.60;6.93;;;;;;;;;;5011237;28;20022;-75
2022/10/21 13:55:26;;;;;;;13.55;7.10;;;;;;;;;;5011330;28;20030;-75
2022/10/21 13:57:54;;;;;;;11.60;6.75;;;;;;;;;;5008199;28;20104;-75
2022/10/21 14:00:23;;;;;;;13.25;6.63;;;;;;;;;;5019853;28;20080;-76
2022/10/21 14:02:52;;;;;;;13.57;7.05;;;;;;;;;;5016996;28;20149;-75
2022/10/21 14:05:27;;;;;;;15.52;7.43;;;;;;;;;;5022574;28;20109;-75
2022/10/21 14:07:53;;;;;;;15.50;6.97;;;;;;;;;;5012635;28;20056;-76
2022/10/21 14:10:20;;;;;;;10.77;6.82;;;;;;;;;;5011926;28;20076;-76
2022/10/21 14:12:47;;;;;;;13.75;6.82;;;;;;;;;;5016256;28;20028;-75
2022/10/21 14:15:16;;;;;;;25.35;7.80;;;;;;;;;;5026959;28;20661;-76
2022/10/21 14:17:47;;;;;;;34.38;7.35;;;;;;;;;;5020345;28;20041;-75
2022/10/21 14:20:15;;;;;;;18.85;7.57;;;;;;;;;;5019675;28;20087;-75
2022/10/21 14:23:03;;;;;;;11.52;6.88;;;;;;;;;;5026225;28;20026;-76
2022/10/21 14:25:30;;;;;;;22.52;7.38;;;;;;;;;;5034726;28;20088;-76
2022/10/21 14:27:57;;;;;;;20.48;7.97;;;;;;;;;;5058674;28;20024;-75
2022/10/21 14:30:24;;;;;;;22.20;7.63;;;;;;;;;;5042635;28;20055;-75
2022/10/21 14:32:51;;;;;;;23.58;8.10;;;;;;;;;;5058099;28;20025;-76
2022/10/21 14:35:20;;;;;;;13.63;7.13;;;;;;;;;;5055974;28;20085;-75
2022/10/21 14:37:56;;;;;;;13.45;6.70;;;;;;;;;;5063520;28;20033;-75
2022/10/21 14:40:28;;;;;;;23.02;7.93;;;;;;;;;;5046428;28;20033;-75
2022/10/21 14:42:54;;;;;;;35.30;8.85;;;;;;;;;;5049451;28;20462;-75
2022/10/21 14:45:28;;;;;;;41.72;9.13;;;;;;;;;;5052500;28;20037;-75
2022/10/21 14:48:14;;;;;;;26.80;8.43;;;;;;;;;;5057955;28;20017;-74